sensor_id;sensor_type;location;lat;lon;timestamp;P1;durP1;ratioP1;P2;durP2;ratioP2
30462;SDS011;17256;43.618;25.336;2023-05-13T02:05:24;4.47;;;2.00;;
30462;SDS011;17256;43.618;25.336;2023-05-13T02:21:05;2.57;;;2.37;;
30462;SDS011;17256;43.618;25.336;2023-05-13T02:24:53;3.77;;;2.50;;
30462;SDS011;17256;43.618;25.336;2023-05-13T02:31:08;3.73;;;2.20;;
30462;SDS011;17256;43.618;25.336;2023-05-13T02:34:32;3.07;;;2.10;;
30462;SDS011;17256;43.618;25.336;2023-05-13T02:37:52;2.17;;;2.07;;
30462;SDS011;17256;43.618;25.336;2023-05-13T02:44:59;3.10;;;2.90;;
30462;SDS011;17256;43.618;25.336;2023-05-13T02:49:02;3.20;;;2.90;;
30462;SDS011;17256;43.618;25.336;2023-05-13T02:52:11;3.37;;;3.17;;
30462;SDS011;17256;43.618;25.336;2023-05-13T03:00:28;3.77;;;3.37;;
30462;SDS011;17256;43.618;25.336;2023-05-13T03:03:43;3.60;;;2.90;;
30462;SDS011;17256;43.618;25.336;2023-05-13T03:06:15;3.13;;;2.83;;
30462;SDS011;17256;43.618;25.336;2023-05-13T03:49:51;4.50;;;3.40;;
30462;SDS011;17256;43.618;25.336;2023-05-13T06:34:05;3.37;;;2.93;;
30462;SDS011;17256;43.618;25.336;2023-05-13T06:37:00;3.10;;;2.80;;
30462;SDS011;17256;43.618;25.336;2023-05-13T06:54:35;5.83;;;2.77;;
30462;SDS011;17256;43.618;25.336;2023-05-13T06:57:04;2.57;;;2.37;;
30462;SDS011;17256;43.618;25.336;2023-05-13T06:59:35;3.80;;;2.27;;
30462;SDS011;17256;43.618;25.336;2023-05-13T07:02:06;2.77;;;2.57;;
30462;SDS011;17256;43.618;25.336;2023-05-13T07:04:36;2.83;;;2.53;;
30462;SDS011;17256;43.618;25.336;2023-05-13T07:18:29;2.30;;;2.10;;
30462;SDS011;17256;43.618;25.336;2023-05-13T07:21:48;2.53;;;2.33;;
30462;SDS011;17256;43.618;25.336;2023-05-13T07:24:52;6.10;;;2.50;;
30462;SDS011;17256;43.618;25.336;2023-05-13T08:02:46;2.70;;;2.20;;
30462;SDS011;17256;43.618;25.336;2023-05-13T08:05:14;2.50;;;1.90;;
30462;SDS011;17256;43.618;25.336;2023-05-13T08:07:43;2.70;;;2.50;;
30462;SDS011;17256;43.618;25.336;2023-05-13T08:10:11;2.50;;;2.30;;
30462;SDS011;17256;43.618;25.336;2023-05-13T08:32:20;2.13;;;2.00;;
30462;SDS011;17256;43.618;25.336;2023-05-13T08:34:47;2.20;;;2.00;;
30462;SDS011;17256;43.618;25.336;2023-05-13T08:38:13;2.90;;;2.23;;
30462;SDS011;17256;43.618;25.336;2023-05-13T08:58:14;5.00;;;2.23;;
30462;SDS011;17256;43.618;25.336;2023-05-13T09:00:45;2.23;;;2.03;;
30462;SDS011;17256;43.618;25.336;2023-05-13T09:03:21;2.40;;;2.20;;
30462;SDS011;17256;43.618;25.336;2023-05-13T09:20:07;3.53;;;1.90;;
30462;SDS011;17256;43.618;25.336;2023-05-13T09:22:44;2.33;;;1.53;;
30462;SDS011;17256;43.618;25.336;2023-05-13T09:45:02;3.13;;;1.80;;
30462;SDS011;17256;43.618;25.336;2023-05-13T09:47:31;2.17;;;2.00;;
30462;SDS011;17256;43.618;25.336;2023-05-13T09:50:13;2.27;;;1.70;;
30462;SDS011;17256;43.618;25.336;2023-05-13T09:52:44;2.57;;;1.77;;
30462;SDS011;17256;43.618;25.336;2023-05-13T09:55:20;1.97;;;1.77;;
30462;SDS011;17256;43.618;25.336;2023-05-13T09:58:00;3.67;;;1.80;;
30462;SDS011;17256;43.618;25.336;2023-05-13T10:00:45;1.77;;;1.67;;
30462;SDS011;17256;43.618;25.336;2023-05-13T10:03:16;3.23;;;2.10;;
30462;SDS011;17256;43.618;25.336;2023-05-13T10:05:49;2.23;;;2.03;;
30462;SDS011;17256;43.618;25.336;2023-05-13T10:08:17;1.90;;;1.80;;
30462;SDS011;17256;43.618;25.336;2023-05-13T10:10:44;2.37;;;1.93;;
30462;SDS011;17256;43.618;25.336;2023-05-13T10:13:19;2.10;;;1.90;;
30462;SDS011;17256;43.618;25.336;2023-05-13T10:16:14;2.10;;;1.93;;
30462;SDS011;17256;43.618;25.336;2023-05-13T10:19:13;4.27;;;1.83;;
30462;SDS011;17256;43.618;25.336;2023-05-13T10:21:46;1.80;;;1.70;;
30462;SDS011;17256;43.618;25.336;2023-05-13T10:25:04;3.40;;;1.93;;
30462;SDS011;17256;43.618;25.336;2023-05-13T10:42:19;2.10;;;1.90;;
30462;SDS011;17256;43.618;25.336;2023-05-13T10:45:06;1.60;;;1.23;;
30462;SDS011;17256;43.618;25.336;2023-05-13T10:47:32;1.70;;;1.60;;
30462;SDS011;17256;43.618;25.336;2023-05-13T10:50:22;1.60;;;1.50;;
30462;SDS011;17256;43.618;25.336;2023-05-13T10:52:56;1.60;;;1.50;;
30462;SDS011;17256;43.618;25.336;2023-05-13T10:55:25;1.90;;;1.73;;
30462;SDS011;17256;43.618;25.336;2023-05-13T10:58:08;3.30;;;2.30;;
30462;SDS011;17256;43.618;25.336;2023-05-13T11:00:36;1.60;;;1.50;;
30462;SDS011;17256;43.618;25.336;2023-05-13T11:05:45;2.20;;;2.00;;
30462;SDS011;17256;43.618;25.336;2023-05-13T11:08:35;3.00;;;1.83;;
30462;SDS011;17256;43.618;25.336;2023-05-13T11:11:02;1.97;;;1.87;;
30462;SDS011;17256;43.618;25.336;2023-05-13T11:22:24;2.57;;;1.83;;
30462;SDS011;17256;43.618;25.336;2023-05-13T11:59:12;1.70;;;1.60;;
30462;SDS011;17256;43.618;25.336;2023-05-13T12:01:39;1.70;;;1.33;;
30462;SDS011;17256;43.618;25.336;2023-05-13T12:04:04;1.40;;;1.30;;
30462;SDS011;17256;43.618;25.336;2023-05-13T12:06:31;1.77;;;1.67;;
30462;SDS011;17256;43.618;25.336;2023-05-13T12:09:03;1.50;;;1.40;;
30462;SDS011;17256;43.618;25.336;2023-05-13T12:11:30;1.70;;;1.60;;
30462;SDS011;17256;43.618;25.336;2023-05-13T12:14:00;1.50;;;1.40;;
30462;SDS011;17256;43.618;25.336;2023-05-13T12:16:26;3.37;;;1.60;;
30462;SDS011;17256;43.618;25.336;2023-05-13T12:18:59;2.37;;;1.70;;
30462;SDS011;17256;43.618;25.336;2023-05-13T12:21:32;1.53;;;1.40;;
30462;SDS011;17256;43.618;25.336;2023-05-13T12:24:20;3.20;;;1.60;;
30462;SDS011;17256;43.618;25.336;2023-05-13T12:26:49;2.67;;;1.70;;
30462;SDS011;17256;43.618;25.336;2023-05-13T12:29:17;1.50;;;1.40;;
30462;SDS011;17256;43.618;25.336;2023-05-13T12:34:30;1.73;;;1.40;;
30462;SDS011;17256;43.618;25.336;2023-05-13T12:37:08;1.53;;;1.43;;
30462;SDS011;17256;43.618;25.336;2023-05-13T12:47:28;2.03;;;1.20;;
30462;SDS011;17256;43.618;25.336;2023-05-13T12:50:30;1.43;;;1.33;;
30462;SDS011;17256;43.618;25.336;2023-05-13T12:57:24;1.97;;;1.50;;
30462;SDS011;17256;43.618;25.336;2023-05-13T13:00:29;1.60;;;1.50;;
30462;SDS011;17256;43.618;25.336;2023-05-13T13:06:00;1.50;;;1.40;;
30462;SDS011;17256;43.618;25.336;2023-05-13T13:08:26;2.80;;;1.30;;
30462;SDS011;17256;43.618;25.336;2023-05-13T13:11:05;1.67;;;1.50;;
30462;SDS011;17256;43.618;25.336;2023-05-13T13:14:31;1.60;;;1.50;;
30462;SDS011;17256;43.618;25.336;2023-05-13T13:17:22;3.37;;;1.30;;
30462;SDS011;17256;43.618;25.336;2023-05-13T13:20:10;2.97;;;1.40;;
30462;SDS011;17256;43.618;25.336;2023-05-13T13:22:38;3.30;;;1.40;;
30462;SDS011;17256;43.618;25.336;2023-05-13T13:25:12;2.00;;;1.67;;
30462;SDS011;17256;43.618;25.336;2023-05-13T13:27:53;5.13;;;2.00;;
30462;SDS011;17256;43.618;25.336;2023-05-13T13:30:31;1.97;;;1.80;;
30462;SDS011;17256;43.618;25.336;2023-05-13T13:33:14;2.30;;;1.80;;
30462;SDS011;17256;43.618;25.336;2023-05-13T13:35:53;2.30;;;1.87;;
30462;SDS011;17256;43.618;25.336;2023-05-13T13:38:25;3.40;;;1.93;;
30462;SDS011;17256;43.618;25.336;2023-05-13T13:40:56;3.00;;;1.80;;
30462;SDS011;17256;43.618;25.336;2023-05-13T13:43:39;3.77;;;2.10;;
30462;SDS011;17256;43.618;25.336;2023-05-13T13:46:08;6.27;;;2.30;;
30462;SDS011;17256;43.618;25.336;2023-05-13T13:48:40;2.20;;;1.80;;
30462;SDS011;17256;43.618;25.336;2023-05-13T13:51:23;2.20;;;1.60;;
30462;SDS011;17256;43.618;25.336;2023-05-13T13:54:06;1.50;;;1.47;;
30462;SDS011;17256;43.618;25.336;2023-05-13T14:00:11;2.30;;;1.40;;
30462;SDS011;17256;43.618;25.336;2023-05-13T14:03:37;1.47;;;1.37;;
30462;SDS011;17256;43.618;25.336;2023-05-13T14:07:52;3.27;;;1.80;;
30462;SDS011;17256;43.618;25.336;2023-05-13T14:14:45;2.00;;;1.50;;
30462;SDS011;17256;43.618;25.336;2023-05-13T14:17:49;4.57;;;1.87;;
30462;SDS011;17256;43.618;25.336;2023-05-13T14:23:29;1.77;;;1.63;;
30462;SDS011;17256;43.618;25.336;2023-05-13T14:26:19;2.33;;;1.73;;
30462;SDS011;17256;43.618;25.336;2023-05-13T14:28:45;1.83;;;1.60;;
30462;SDS011;17256;43.618;25.336;2023-05-13T14:31:10;9.10;;;2.40;;
30462;SDS011;17256;43.618;25.336;2023-05-13T14:33:37;2.80;;;1.73;;
30462;SDS011;17256;43.618;25.336;2023-05-13T14:36:02;2.13;;;1.90;;
30462;SDS011;17256;43.618;25.336;2023-05-13T14:38:29;3.10;;;1.87;;
30462;SDS011;17256;43.618;25.336;2023-05-13T14:40:56;2.80;;;1.40;;
30462;SDS011;17256;43.618;25.336;2023-05-13T14:43:22;1.53;;;1.43;;
30462;SDS011;17256;43.618;25.336;2023-05-13T14:45:48;1.90;;;1.57;;
30462;SDS011;17256;43.618;25.336;2023-05-13T14:48:15;1.37;;;1.27;;
30462;SDS011;17256;43.618;25.336;2023-05-13T14:50:50;4.13;;;1.80;;
30462;SDS011;17256;43.618;25.336;2023-05-13T14:53:17;5.93;;;2.53;;
30462;SDS011;17256;43.618;25.336;2023-05-13T14:55:42;2.47;;;1.70;;
30462;SDS011;17256;43.618;25.336;2023-05-13T14:58:08;4.80;;;2.10;;
30462;SDS011;17256;43.618;25.336;2023-05-13T15:00:34;6.70;;;2.50;;
30462;SDS011;17256;43.618;25.336;2023-05-13T15:03:07;5.60;;;2.40;;
30462;SDS011;17256;43.618;25.336;2023-05-13T15:05:39;4.93;;;2.40;;
30462;SDS011;17256;43.618;25.336;2023-05-13T15:08:20;3.23;;;2.40;;
30462;SDS011;17256;43.618;25.336;2023-05-13T15:11:35;7.43;;;2.03;;
30462;SDS011;17256;43.618;25.336;2023-05-13T15:14:10;18.57;;;4.50;;
30462;SDS011;17256;43.618;25.336;2023-05-13T15:16:56;2.43;;;1.87;;
30462;SDS011;17256;43.618;25.336;2023-05-13T15:19:21;10.00;;;3.67;;
30462;SDS011;17256;43.618;25.336;2023-05-13T15:21:47;5.23;;;2.47;;
30462;SDS011;17256;43.618;25.336;2023-05-13T15:24:12;4.37;;;2.13;;
30462;SDS011;17256;43.618;25.336;2023-05-13T15:26:40;2.70;;;1.80;;
30462;SDS011;17256;43.618;25.336;2023-05-13T15:29:06;3.53;;;2.40;;
30462;SDS011;17256;43.618;25.336;2023-05-13T15:31:31;4.43;;;1.70;;
30462;SDS011;17256;43.618;25.336;2023-05-13T15:34:13;2.10;;;1.90;;
30462;SDS011;17256;43.618;25.336;2023-05-13T15:37:36;3.70;;;2.10;;
30462;SDS011;17256;43.618;25.336;2023-05-13T15:40:10;4.13;;;2.10;;
30462;SDS011;17256;43.618;25.336;2023-05-13T15:45:39;2.60;;;1.77;;
30462;SDS011;17256;43.618;25.336;2023-05-13T15:48:06;2.63;;;2.43;;
30462;SDS011;17256;43.618;25.336;2023-05-13T15:50:36;8.27;;;3.03;;
30462;SDS011;17256;43.618;25.336;2023-05-13T15:57:26;4.63;;;3.60;;
30462;SDS011;17256;43.618;25.336;2023-05-13T15:59:53;4.90;;;2.43;;
30462;SDS011;17256;43.618;25.336;2023-05-13T16:02:36;6.87;;;2.73;;
30462;SDS011;17256;43.618;25.336;2023-05-13T16:06:09;4.33;;;2.60;;
30462;SDS011;17256;43.618;25.336;2023-05-13T16:15:53;3.13;;;2.27;;
30462;SDS011;17256;43.618;25.336;2023-05-13T16:18:41;4.80;;;2.43;;
30462;SDS011;17256;43.618;25.336;2023-05-13T16:21:08;6.00;;;3.27;;
30462;SDS011;17256;43.618;25.336;2023-05-13T16:23:49;11.37;;;4.30;;
30462;SDS011;17256;43.618;25.336;2023-05-13T16:26:20;7.10;;;4.10;;
30462;SDS011;17256;43.618;25.336;2023-05-13T16:28:52;5.50;;;2.43;;
30462;SDS011;17256;43.618;25.336;2023-05-13T16:31:18;6.60;;;2.80;;
30462;SDS011;17256;43.618;25.336;2023-05-13T16:33:46;3.17;;;2.40;;
30462;SDS011;17256;43.618;25.336;2023-05-13T16:36:20;5.93;;;3.07;;
30462;SDS011;17256;43.618;25.336;2023-05-13T16:38:50;3.93;;;2.03;;
30462;SDS011;17256;43.618;25.336;2023-05-13T16:41:20;6.43;;;2.97;;
30462;SDS011;17256;43.618;25.336;2023-05-13T16:43:48;11.27;;;3.57;;
30462;SDS011;17256;43.618;25.336;2023-05-13T16:46:15;5.13;;;2.63;;
30462;SDS011;17256;43.618;25.336;2023-05-13T16:48:41;3.20;;;2.83;;
30462;SDS011;17256;43.618;25.336;2023-05-13T16:51:10;7.23;;;2.97;;
30462;SDS011;17256;43.618;25.336;2023-05-13T16:53:52;5.60;;;2.67;;
30462;SDS011;17256;43.618;25.336;2023-05-13T16:57:29;6.90;;;2.93;;
30462;SDS011;17256;43.618;25.336;2023-05-13T17:00:13;3.20;;;2.80;;
30462;SDS011;17256;43.618;25.336;2023-05-13T17:03:24;8.03;;;2.60;;
30462;SDS011;17256;43.618;25.336;2023-05-13T17:06:17;3.30;;;2.43;;
30462;SDS011;17256;43.618;25.336;2023-05-13T17:08:51;2.73;;;2.53;;
30462;SDS011;17256;43.618;25.336;2023-05-13T17:11:24;2.70;;;2.50;;
30462;SDS011;17256;43.618;25.336;2023-05-13T17:13:55;2.43;;;2.23;;
30462;SDS011;17256;43.618;25.336;2023-05-13T17:16:23;3.73;;;2.50;;
30462;SDS011;17256;43.618;25.336;2023-05-13T17:18:58;3.40;;;2.67;;
30462;SDS011;17256;43.618;25.336;2023-05-13T17:21:26;4.70;;;2.90;;
30462;SDS011;17256;43.618;25.336;2023-05-13T17:23:53;6.17;;;2.80;;
30462;SDS011;17256;43.618;25.336;2023-05-13T17:26:25;3.30;;;2.63;;
30462;SDS011;17256;43.618;25.336;2023-05-13T17:29:19;5.80;;;2.30;;
30462;SDS011;17256;43.618;25.336;2023-05-13T17:31:48;4.87;;;3.00;;
30462;SDS011;17256;43.618;25.336;2023-05-13T17:34:26;3.63;;;2.87;;
30462;SDS011;17256;43.618;25.336;2023-05-13T17:37:04;3.00;;;2.70;;
30462;SDS011;17256;43.618;25.336;2023-05-13T17:40:21;4.77;;;3.50;;
30462;SDS011;17256;43.618;25.336;2023-05-13T17:42:54;3.90;;;3.00;;
30462;SDS011;17256;43.618;25.336;2023-05-13T17:46:14;5.87;;;2.97;;
30462;SDS011;17256;43.618;25.336;2023-05-13T17:48:44;6.80;;;3.67;;
30462;SDS011;17256;43.618;25.336;2023-05-13T17:51:10;5.97;;;3.57;;
30462;SDS011;17256;43.618;25.336;2023-05-13T17:53:35;5.90;;;2.87;;
30462;SDS011;17256;43.618;25.336;2023-05-13T17:56:01;4.13;;;3.00;;
30462;SDS011;17256;43.618;25.336;2023-05-13T17:58:27;5.33;;;2.80;;
30462;SDS011;17256;43.618;25.336;2023-05-13T18:00:53;5.13;;;2.97;;
30462;SDS011;17256;43.618;25.336;2023-05-13T18:03:19;3.93;;;2.93;;
30462;SDS011;17256;43.618;25.336;2023-05-13T18:05:46;6.63;;;3.43;;
30462;SDS011;17256;43.618;25.336;2023-05-13T18:08:11;7.60;;;4.10;;
30462;SDS011;17256;43.618;25.336;2023-05-13T18:10:37;5.30;;;3.70;;
30462;SDS011;17256;43.618;25.336;2023-05-13T18:13:03;5.67;;;3.30;;
30462;SDS011;17256;43.618;25.336;2023-05-13T18:15:31;6.77;;;4.23;;
30462;SDS011;17256;43.618;25.336;2023-05-13T18:17:57;7.20;;;4.87;;
30462;SDS011;17256;43.618;25.336;2023-05-13T18:20:23;9.30;;;4.20;;
30462;SDS011;17256;43.618;25.336;2023-05-13T18:23:44;4.33;;;3.80;;
30462;SDS011;17256;43.618;25.336;2023-05-13T18:26:12;4.67;;;3.53;;
30462;SDS011;17256;43.618;25.336;2023-05-13T18:28:40;8.73;;;4.07;;
30462;SDS011;17256;43.618;25.336;2023-05-13T18:31:09;4.80;;;4.30;;
30462;SDS011;17256;43.618;25.336;2023-05-13T18:33:42;10.70;;;4.07;;
30462;SDS011;17256;43.618;25.336;2023-05-13T18:36:12;4.53;;;3.70;;
30462;SDS011;17256;43.618;25.336;2023-05-13T18:38:38;10.07;;;4.40;;
30462;SDS011;17256;43.618;25.336;2023-05-13T18:41:12;7.40;;;4.30;;
30462;SDS011;17256;43.618;25.336;2023-05-13T18:43:46;7.37;;;5.03;;
30462;SDS011;17256;43.618;25.336;2023-05-13T18:46:13;5.53;;;3.83;;
30462;SDS011;17256;43.618;25.336;2023-05-13T18:49:13;8.47;;;4.93;;
30462;SDS011;17256;43.618;25.336;2023-05-13T18:52:11;6.20;;;3.57;;
30462;SDS011;17256;43.618;25.336;2023-05-13T18:58:33;4.43;;;3.17;;
30462;SDS011;17256;43.618;25.336;2023-05-13T19:01:07;4.90;;;3.20;;
30462;SDS011;17256;43.618;25.336;2023-05-13T19:03:58;3.63;;;3.33;;
30462;SDS011;17256;43.618;25.336;2023-05-13T19:06:28;4.43;;;4.03;;
30462;SDS011;17256;43.618;25.336;2023-05-13T19:09:07;8.77;;;4.00;;
30462;SDS011;17256;43.618;25.336;2023-05-13T19:11:34;4.73;;;3.53;;
30462;SDS011;17256;43.618;25.336;2023-05-13T19:14:00;6.27;;;3.97;;
30462;SDS011;17256;43.618;25.336;2023-05-13T19:16:26;6.43;;;3.63;;
30462;SDS011;17256;43.618;25.336;2023-05-13T19:18:52;4.97;;;4.47;;
30462;SDS011;17256;43.618;25.336;2023-05-13T19:21:18;7.87;;;4.10;;
30462;SDS011;17256;43.618;25.336;2023-05-13T19:23:46;5.47;;;3.73;;
30462;SDS011;17256;43.618;25.336;2023-05-13T19:26:11;4.50;;;4.00;;
30462;SDS011;17256;43.618;25.336;2023-05-13T19:28:40;5.70;;;3.87;;
30462;SDS011;17256;43.618;25.336;2023-05-13T19:31:09;6.87;;;4.23;;
30462;SDS011;17256;43.618;25.336;2023-05-13T19:33:39;6.37;;;3.93;;
30462;SDS011;17256;43.618;25.336;2023-05-13T19:36:35;5.80;;;4.10;;
30462;SDS011;17256;43.618;25.336;2023-05-13T19:39:24;5.80;;;4.53;;
30462;SDS011;17256;43.618;25.336;2023-05-13T19:45:00;6.50;;;5.03;;
30462;SDS011;17256;43.618;25.336;2023-05-13T19:47:34;5.97;;;4.03;;
30462;SDS011;17256;43.618;25.336;2023-05-13T19:50:01;4.83;;;3.90;;
30462;SDS011;17256;43.618;25.336;2023-05-13T19:52:29;7.43;;;4.80;;
30462;SDS011;17256;43.618;25.336;2023-05-13T19:54:56;8.90;;;5.43;;
30462;SDS011;17256;43.618;25.336;2023-05-13T19:57:28;9.00;;;5.07;;
30462;SDS011;17256;43.618;25.336;2023-05-13T20:00:01;7.90;;;5.30;;
30462;SDS011;17256;43.618;25.336;2023-05-13T20:06:23;9.77;;;4.83;;
30462;SDS011;17256;43.618;25.336;2023-05-13T20:08:50;6.83;;;4.70;;
30462;SDS011;17256;43.618;25.336;2023-05-13T20:11:16;7.97;;;4.80;;
30462;SDS011;17256;43.618;25.336;2023-05-13T20:13:41;5.07;;;4.30;;
30462;SDS011;17256;43.618;25.336;2023-05-13T20:16:16;7.67;;;4.20;;
30462;SDS011;17256;43.618;25.336;2023-05-13T20:18:49;7.43;;;5.03;;
30462;SDS011;17256;43.618;25.336;2023-05-13T20:21:15;7.73;;;3.90;;
30462;SDS011;17256;43.618;25.336;2023-05-13T20:23:41;7.00;;;3.73;;
30462;SDS011;17256;43.618;25.336;2023-05-13T20:26:07;4.43;;;4.03;;
30462;SDS011;17256;43.618;25.336;2023-05-13T20:28:35;4.77;;;3.80;;
30462;SDS011;17256;43.618;25.336;2023-05-13T20:31:06;4.17;;;3.63;;
30462;SDS011;17256;43.618;25.336;2023-05-13T20:34:04;5.50;;;3.57;;
30462;SDS011;17256;43.618;25.336;2023-05-13T20:36:33;6.87;;;4.60;;
30462;SDS011;17256;43.618;25.336;2023-05-13T20:39:08;6.07;;;3.93;;
30462;SDS011;17256;43.618;25.336;2023-05-13T20:41:38;4.87;;;3.67;;
30462;SDS011;17256;43.618;25.336;2023-05-13T20:44:15;7.30;;;4.10;;
30462;SDS011;17256;43.618;25.336;2023-05-13T20:46:47;3.57;;;3.27;;
30462;SDS011;17256;43.618;25.336;2023-05-13T20:49:20;4.27;;;3.73;;
30462;SDS011;17256;43.618;25.336;2023-05-13T20:56:01;4.13;;;3.57;;
30462;SDS011;17256;43.618;25.336;2023-05-13T20:58:57;4.27;;;3.43;;
30462;SDS011;17256;43.618;25.336;2023-05-13T21:01:37;5.70;;;3.80;;
30462;SDS011;17256;43.618;25.336;2023-05-13T21:04:21;5.90;;;3.20;;
30462;SDS011;17256;43.618;25.336;2023-05-13T21:06:57;3.53;;;3.23;;
30462;SDS011;17256;43.618;25.336;2023-05-13T21:09:30;4.33;;;3.90;;
30462;SDS011;17256;43.618;25.336;2023-05-13T21:12:03;6.33;;;3.80;;
30462;SDS011;17256;43.618;25.336;2023-05-13T21:14:30;5.27;;;3.27;;
30462;SDS011;17256;43.618;25.336;2023-05-13T21:16:55;5.17;;;3.87;;
30462;SDS011;17256;43.618;25.336;2023-05-13T21:19:22;6.00;;;3.80;;
30462;SDS011;17256;43.618;25.336;2023-05-13T21:21:59;6.10;;;3.30;;
30462;SDS011;17256;43.618;25.336;2023-05-13T21:24:51;4.33;;;3.87;;
30462;SDS011;17256;43.618;25.336;2023-05-13T21:27:22;4.00;;;3.60;;
30462;SDS011;17256;43.618;25.336;2023-05-13T21:29:53;5.57;;;3.80;;
30462;SDS011;17256;43.618;25.336;2023-05-13T21:32:27;5.73;;;3.63;;
30462;SDS011;17256;43.618;25.336;2023-05-13T21:35:00;4.87;;;3.60;;
30462;SDS011;17256;43.618;25.336;2023-05-13T21:37:36;4.97;;;4.00;;
30462;SDS011;17256;43.618;25.336;2023-05-13T21:40:05;6.50;;;3.97;;
30462;SDS011;17256;43.618;25.336;2023-05-13T21:42:40;3.67;;;3.37;;
30462;SDS011;17256;43.618;25.336;2023-05-13T21:45:28;7.67;;;4.10;;
30462;SDS011;17256;43.618;25.336;2023-05-13T21:48:10;4.60;;;4.20;;
30462;SDS011;17256;43.618;25.336;2023-05-13T21:50:46;5.20;;;3.93;;
30462;SDS011;17256;43.618;25.336;2023-05-13T21:53:38;7.23;;;4.10;;
30462;SDS011;17256;43.618;25.336;2023-05-13T21:56:17;4.87;;;4.37;;
30462;SDS011;17256;43.618;25.336;2023-05-13T21:58:47;4.10;;;3.70;;
30462;SDS011;17256;43.618;25.336;2023-05-13T22:01:37;4.57;;;4.17;;
30462;SDS011;17256;43.618;25.336;2023-05-13T22:04:09;9.50;;;4.90;;
30462;SDS011;17256;43.618;25.336;2023-05-13T22:07:00;7.60;;;5.13;;
30462;SDS011;17256;43.618;25.336;2023-05-13T22:09:28;5.17;;;4.60;;
30462;SDS011;17256;43.618;25.336;2023-05-13T22:12:07;6.60;;;5.03;;
30462;SDS011;17256;43.618;25.336;2023-05-13T22:14:57;5.47;;;4.37;;
30462;SDS011;17256;43.618;25.336;2023-05-13T22:17:25;5.27;;;4.47;;
30462;SDS011;17256;43.618;25.336;2023-05-13T22:19:53;5.07;;;4.20;;
30462;SDS011;17256;43.618;25.336;2023-05-13T22:22:41;7.07;;;5.17;;
30462;SDS011;17256;43.618;25.336;2023-05-13T22:25:22;4.53;;;4.13;;
30462;SDS011;17256;43.618;25.336;2023-05-13T22:27:57;4.40;;;4.00;;
30462;SDS011;17256;43.618;25.336;2023-05-13T22:30:37;5.97;;;4.57;;
30462;SDS011;17256;43.618;25.336;2023-05-13T22:33:16;13.23;;;5.13;;
30462;SDS011;17256;43.618;25.336;2023-05-13T22:36:04;9.70;;;4.87;;
30462;SDS011;17256;43.618;25.336;2023-05-13T22:38:42;7.17;;;4.90;;
30462;SDS011;17256;43.618;25.336;2023-05-13T22:41:11;6.87;;;5.10;;
30462;SDS011;17256;43.618;25.336;2023-05-13T22:43:40;10.30;;;6.57;;
30462;SDS011;17256;43.618;25.336;2023-05-13T22:46:06;5.33;;;4.83;;
30462;SDS011;17256;43.618;25.336;2023-05-13T22:51:11;7.87;;;7.07;;
30462;SDS011;17256;43.618;25.336;2023-05-13T22:54:01;5.50;;;5.00;;
30462;SDS011;17256;43.618;25.336;2023-05-13T22:56:46;6.00;;;5.50;;
30462;SDS011;17256;43.618;25.336;2023-05-13T22:59:22;5.43;;;4.90;;
30462;SDS011;17256;43.618;25.336;2023-05-13T23:01:55;8.13;;;4.83;;
30462;SDS011;17256;43.618;25.336;2023-05-13T23:04:26;7.23;;;5.37;;
30462;SDS011;17256;43.618;25.336;2023-05-13T23:06:56;6.13;;;5.30;;
30462;SDS011;17256;43.618;25.336;2023-05-13T23:09:29;5.30;;;4.90;;
30462;SDS011;17256;43.618;25.336;2023-05-13T23:12:18;8.33;;;5.53;;
30462;SDS011;17256;43.618;25.336;2023-05-13T23:15:04;6.07;;;5.50;;
30462;SDS011;17256;43.618;25.336;2023-05-13T23:17:37;5.73;;;5.23;;
30462;SDS011;17256;43.618;25.336;2023-05-13T23:20:52;5.70;;;5.20;;
30462;SDS011;17256;43.618;25.336;2023-05-13T23:23:30;7.37;;;5.67;;
30462;SDS011;17256;43.618;25.336;2023-05-13T23:26:10;10.10;;;6.47;;
30462;SDS011;17256;43.618;25.336;2023-05-13T23:28:49;8.43;;;5.50;;
30462;SDS011;17256;43.618;25.336;2023-05-13T23:31:24;6.50;;;6.00;;
30462;SDS011;17256;43.618;25.336;2023-05-13T23:34:11;9.30;;;5.70;;
30462;SDS011;17256;43.618;25.336;2023-05-13T23:36:47;7.50;;;6.13;;
30462;SDS011;17256;43.618;25.336;2023-05-13T23:39:25;8.03;;;5.80;;
30462;SDS011;17256;43.618;25.336;2023-05-13T23:42:01;10.43;;;6.73;;
30462;SDS011;17256;43.618;25.336;2023-05-13T23:45:01;5.80;;;5.30;;
30462;SDS011;17256;43.618;25.336;2023-05-13T23:47:43;7.43;;;6.67;;
30462;SDS011;17256;43.618;25.336;2023-05-13T23:50:13;7.43;;;6.47;;
30462;SDS011;17256;43.618;25.336;2023-05-13T23:53:03;8.70;;;6.93;;
30462;SDS011;17256;43.618;25.336;2023-05-13T23:55:43;10.67;;;7.43;;
30462;SDS011;17256;43.618;25.336;2023-05-13T23:58:33;8.47;;;6.53;;
